PH-0033 weather

Manila International Container Terminal (MICT) Heliport
Manila, Philippines

Public forecast

Using degrees Celsius for public forecast. Weather courtesy of forecast.io.

METAR (pilot weather report)

Closest report is Ninoy Aquino International Airport, 6.5 nm (12.1 km) SE. Retrieved 2019/09/22 07:00 UTC (15 minutes ago):

RPLL 220700Z 29010KT 9999 FEW025 BKN100 31/25 Q1010 NOSIG RMK A2983

TAF (pilot weather forecast)

Closest forecast is Ninoy Aquino International Airport, 6.5 nm (12.1 km) SE. Retrieved 2019/09/22 06:00 UTC (1 hour ago):

TAF RPLL 220500Z 2206/2312 25006KT 9999 FEW023 BKN300 TX31/2206Z TN25/2221Z TEMPO 2206/2212 26014KT FEW018CB SCT023 BKN100 TEMPO 2212/2218 VRB02KT FEW023 SCT100 BKN300